Time;durP1;ratioP1;P1;durP2;ratioP2;P2;SDS_P1;SDS_P2;PMS_P1;PMS_P2;Temp;Humidity;BMP_temperature;BMP_pressure;BME280_temperature;BME280_humidity;BME280_pressure;Samples;Min_cycle;Max_cycle;Signal;HPM_P1;HPM_P2
2021/10/15 00:01:56;;;;;;;17.77;5.43;;;;;;;13.23;91.70;101820.34;5026998;28;20034;-69
2021/10/15 00:04:21;;;;;;;18.25;5.78;;;;;;;13.29;91.32;101824.53;5029819;28;20032;-69
2021/10/15 00:06:47;;;;;;;14.98;5.82;;;;;;;13.23;91.73;101822.97;5030878;28;20296;-69
2021/10/15 00:09:12;;;;;;;13.85;5.22;;;;;;;13.26;91.62;101813.22;5020254;28;20021;-69
2021/10/15 00:11:37;;;;;;;15.85;5.18;;;;;;;13.28;91.56;101808.78;5031910;28;20552;-69
2021/10/15 00:14:03;;;;;;;17.30;5.43;;;;;;;13.28;91.51;101819.31;5029067;28;20025;-70
2021/10/15 00:16:28;;;;;;;12.88;5.25;;;;;;;13.25;91.57;101807.09;5028158;28;20374;-69
2021/10/15 00:18:54;;;;;;;17.50;5.95;;;;;;;13.27;91.68;101810.53;5031262;28;20037;-68
2021/10/15 00:21:19;;;;;;;14.57;5.60;;;;;;;13.28;91.53;101812.28;5026968;28;20033;-69
2021/10/15 00:23:45;;;;;;;14.40;5.22;;;;;;;13.27;91.79;101810.53;5029644;28;20029;-70
2021/10/15 00:26:10;;;;;;;22.95;5.20;;;;;;;13.26;91.95;101807.97;5031495;28;20022;-68
2021/10/15 00:28:35;;;;;;;13.15;5.03;;;;;;;13.24;92.15;101803.59;5026701;28;20107;-69
2021/10/15 00:31:01;;;;;;;14.00;5.22;;;;;;;13.23;92.00;101796.63;5022356;28;20119;-70
2021/10/15 00:33:26;;;;;;;10.82;4.63;;;;;;;13.23;92.11;101794.00;5022664;28;20455;-69
2021/10/15 00:35:52;;;;;;;16.67;5.50;;;;;;;13.23;92.02;101794.00;5021662;28;20109;-68
2021/10/15 00:38:18;;;;;;;16.40;5.13;;;;;;;13.23;91.79;101785.19;5029620;28;20088;-68
2021/10/15 00:40:44;;;;;;;25.45;6.25;;;;;;;13.18;92.46;101780.06;5024752;28;20037;-70
2021/10/15 00:43:09;;;;;;;15.70;5.68;;;;;;;13.18;92.26;101784.47;5030781;28;20378;-69
2021/10/15 00:45:35;;;;;;;18.88;5.65;;;;;;;13.18;92.24;101777.41;5030767;28;20032;-69
2021/10/15 00:48:00;;;;;;;16.20;5.32;;;;;;;13.17;92.51;101782.75;5031365;28;20017;-69
2021/10/15 00:50:25;;;;;;;20.42;5.70;;;;;;;13.18;91.82;101774.78;5026438;28;20029;-69
2021/10/15 00:52:51;;;;;;;19.75;5.43;;;;;;;13.17;92.09;101767.81;5031534;28;20057;-69
2021/10/15 00:55:16;;;;;;;14.52;5.40;;;;;;;13.17;92.75;101769.56;5030076;28;20107;-69
2021/10/15 00:57:41;;;;;;;22.45;6.15;;;;;;;13.15;92.72;101774.03;5030677;28;20022;-69
2021/10/15 01:00:07;;;;;;;17.42;5.22;;;;;;;13.13;92.80;101753.00;5026502;28;20314;-69
2021/10/15 01:02:33;;;;;;;21.38;5.68;;;;;;;13.12;92.77;101755.69;5009881;28;20129;-69
2021/10/15 01:04:58;;;;;;;16.73;6.40;;;;;;;13.12;93.10;101755.69;5015985;28;20032;-69
2021/10/15 01:07:24;;;;;;;15.57;5.53;;;;;;;13.11;92.95;101753.94;5031066;28;20087;-69
2021/10/15 01:09:50;;;;;;;15.52;5.40;;;;;;;13.11;92.98;101749.56;5019581;28;20017;-69
2021/10/15 01:12:15;;;;;;;17.13;5.25;;;;;;;13.10;92.98;101749.59;5014272;28;20032;-69
2021/10/15 01:14:40;;;;;;;13.30;5.43;;;;;;;13.11;93.08;101744.28;5028955;28;20028;-70
2021/10/15 01:17:06;;;;;;;16.88;5.90;;;;;;;13.08;93.06;101732.06;5029471;28;20032;-70
2021/10/15 01:19:32;;;;;;;17.70;5.75;;;;;;;13.09;93.15;101738.19;5026932;28;20032;-69
2021/10/15 01:22:00;;;;;;;16.60;5.55;;;;;;;13.11;93.28;101736.38;5029730;28;20524;-68
2021/10/15 01:24:25;;;;;;;13.10;5.97;;;;;;;13.11;93.05;101740.78;5029342;28;20532;-69
2021/10/15 01:26:50;;;;;;;15.80;5.40;;;;;;;13.12;93.10;101732.81;5030655;28;20013;-69
2021/10/15 01:29:16;;;;;;;14.82;5.85;;;;;;;13.09;93.41;101730.28;5018239;28;20030;-69
2021/10/15 01:31:41;;;;;;;18.65;6.05;;;;;;;13.09;93.44;101732.94;5028719;28;20057;-69
2021/10/15 01:34:06;;;;;;;16.95;5.82;;;;;;;13.15;93.08;101730.13;5029688;28;20124;-69
2021/10/15 01:36:31;;;;;;;17.67;5.40;;;;;;;13.15;93.21;101719.56;5029959;28;20025;-69
2021/10/15 01:38:57;;;;;;;15.70;4.97;;;;;;;13.15;92.83;101719.56;5024815;28;20034;-69
2021/10/15 01:41:22;;;;;;;16.58;5.07;;;;;;;13.12;93.21;101717.03;5019824;28;20044;-69
2021/10/15 01:43:47;;;;;;;14.77;5.28;;;;;;;13.12;93.21;101719.66;5023994;28;20021;-69
2021/10/15 01:46:13;;;;;;;19.30;5.75;;;;;;;13.13;93.28;101717.91;5018227;28;20029;-69
2021/10/15 01:48:38;;;;;;;17.13;5.32;;;;;;;13.12;93.37;101716.16;5022810;28;20021;-69
2021/10/15 01:51:04;;;;;;;21.58;4.82;;;;;;;13.11;92.98;101709.16;5019905;28;20021;-68
2021/10/15 01:53:30;;;;;;;15.80;4.03;;;;;;;13.15;92.50;101708.19;5024416;28;20036;-69
2021/10/15 01:55:56;;;;;;;14.27;4.13;;;;;;;13.27;90.58;101707.78;5023214;28;20188;-70
2021/10/15 01:58:21;;;;;;;14.65;4.13;;;;;;;13.34;89.36;101700.59;5009523;28;20022;-68
2021/10/15 02:00:47;;;;;;;11.07;3.42;;;;;;;13.51;87.48;101686.91;5011657;28;20502;-69
2021/10/15 02:03:13;;;;;;;13.95;3.35;;;;;;;13.66;86.66;101702.22;5028674;28;20519;-68
2021/10/15 02:05:38;;;;;;;14.48;3.90;;;;;;;13.78;85.96;101689.56;5018782;28;20033;-68
2021/10/15 02:08:04;;;;;;;13.85;3.63;;;;;;;13.80;86.05;101682.47;5015481;28;20025;-69
2021/10/15 02:10:29;;;;;;;13.52;3.80;;;;;;;13.86;84.89;101683.13;5025941;28;20118;-69
2021/10/15 02:12:54;;;;;;;14.50;3.90;;;;;;;13.95;84.63;101681.94;5026940;28;20052;-69
2021/10/15 02:15:20;;;;;;;10.52;3.38;;;;;;;14.00;83.94;101680.03;5029121;28;20497;-70
2021/10/15 02:17:45;;;;;;;12.38;3.30;;;;;;;14.00;83.85;101677.41;5026134;28;20017;-69
2021/10/15 02:20:13;;;;;;;12.02;3.40;;;;;;;14.03;83.79;101668.53;5025779;28;20021;-69
2021/10/15 02:22:44;;;;;;;13.82;3.40;;;;;;;14.04;83.56;101664.94;5028983;28;20036;-69
2021/10/15 02:25:11;;;;;;;20.20;3.72;;;;;;;14.06;82.76;101676.31;5021686;28;20029;-69
2021/10/15 02:27:36;;;;;;;12.88;3.67;;;;;;;14.12;83.07;101667.34;5013461;28;20083;-69
2021/10/15 02:30:03;;;;;;;12.77;3.60;;;;;;;14.09;82.84;101662.16;5022025;28;20453;-69
2021/10/15 02:32:28;;;;;;;10.00;3.28;;;;;;;14.06;83.16;101657.00;5026192;28;20470;-68
2021/10/15 02:34:54;;;;;;;13.90;3.10;;;;;;;14.13;81.98;101648.81;5028369;28;20055;-69
2021/10/15 02:37:19;;;;;;;11.73;2.88;;;;;;;14.15;81.76;101659.31;5028437;28;20446;-68
2021/10/15 02:39:44;;;;;;;12.18;3.30;;;;;;;14.14;81.70;101668.13;5020942;28;20478;-69
2021/10/15 02:42:10;;;;;;;17.33;4.35;;;;;;;14.08;82.37;101663.06;5028217;28;20371;-69
2021/10/15 02:44:36;;;;;;;9.98;3.38;;;;;;;14.12;82.04;101662.06;5025586;28;20091;-68
2021/10/15 02:47:02;;;;;;;14.10;4.10;;;;;;;14.10;81.87;101643.63;5027193;28;20049;-70
2021/10/15 02:49:27;;;;;;;15.30;3.67;;;;;;;14.14;81.71;101644.38;5027436;28;20059;-69
2021/10/15 02:51:53;;;;;;;13.73;3.67;;;;;;;14.13;82.06;101640.06;5028178;28;20455;-70
2021/10/15 02:54:18;;;;;;;14.65;3.30;;;;;;;14.11;81.63;101640.09;5026422;28;20509;-70
2021/10/15 02:56:43;;;;;;;18.45;4.15;;;;;;;14.10;81.46;101634.88;5027308;28;20064;-70
2021/10/15 02:59:09;;;;;;;7.65;3.15;;;;;;;14.08;81.87;101639.31;5027196;28;20116;-69
2021/10/15 03:01:34;;;;;;;11.23;3.03;;;;;;;14.03;82.18;101627.16;5025318;28;20517;-70
2021/10/15 03:04:00;;;;;;;13.70;3.67;;;;;;;14.05;81.93;101624.47;5027698;28;20053;-70
2021/10/15 03:06:25;;;;;;;15.60;3.42;;;;;;;14.04;82.00;101634.19;5027231;28;20044;-70
2021/10/15 03:08:50;;;;;;;14.43;4.18;;;;;;;14.02;82.52;101635.16;5024195;28;20032;-69
2021/10/15 03:11:16;;;;;;;11.90;3.63;;;;;;;14.01;82.74;101636.91;5016063;28;20063;-69
2021/10/15 03:13:41;;;;;;;12.50;3.50;;;;;;;13.97;82.82;101632.66;5022529;28;20284;-69
2021/10/15 03:16:06;;;;;;;14.90;3.47;;;;;;;13.97;82.77;101631.81;5023326;28;20140;-69
2021/10/15 03:18:32;;;;;;;15.88;3.80;;;;;;;13.97;83.18;101631.81;5018883;28;20017;-69
2021/10/15 03:20:57;;;;;;;17.42;3.80;;;;;;;13.99;81.61;101628.19;5029697;28;20490;-69
2021/10/15 03:23:22;;;;;;;12.82;4.25;;;;;;;14.03;81.59;101627.16;5030718;28;20189;-68
2021/10/15 03:25:48;;;;;;;14.43;3.53;;;;;;;14.06;80.68;101622.72;5031968;28;20079;-69
2021/10/15 03:28:13;;;;;;;13.63;3.40;;;;;;;14.04;79.85;101617.47;5021274;28;20481;-69
2021/10/15 03:30:38;;;;;;;16.00;3.38;;;;;;;14.05;79.74;101616.56;5023696;28;20025;-69
2021/10/15 03:33:05;;;;;;;14.32;3.17;;;;;;;14.05;79.20;101613.91;5020793;28;20021;-69
2021/10/15 03:35:31;;;;;;;13.23;3.22;;;;;;;14.04;79.04;101618.34;5031100;28;20471;-69
2021/10/15 03:37:56;;;;;;;13.13;3.55;;;;;;;14.03;79.22;101621.03;5025465;28;20071;-68
2021/10/15 03:40:22;;;;;;;9.57;3.10;;;;;;;14.03;78.98;101621.91;5019644;28;20508;-69
2021/10/15 03:42:47;;;;;;;13.30;3.10;;;;;;;14.00;79.70;101622.03;5032021;28;20032;-69
2021/10/15 03:45:13;;;;;;;11.18;2.95;;;;;;;13.99;79.88;101624.69;5031238;28;20025;-69
2021/10/15 03:47:38;;;;;;;17.02;3.67;;;;;;;13.99;80.14;101635.22;5031551;28;20033;-69
2021/10/15 03:50:06;;;;;;;16.80;3.45;;;;;;;13.99;80.56;101628.19;5028472;28;20109;-69
2021/10/15 03:52:31;;;;;;;14.15;3.67;;;;;;;14.01;80.35;101622.88;5028579;28;20064;-69
2021/10/15 03:54:56;;;;;;;12.90;3.30;;;;;;;13.98;80.88;101629.13;5019044;28;20416;-67
2021/10/15 03:57:22;;;;;;;18.55;3.85;;;;;;;13.94;81.02;101624.88;5027545;28;20052;-69
2021/10/15 03:59:47;;;;;;;12.82;3.85;;;;;;;13.97;80.49;101622.09;5028829;28;20416;-69
2021/10/15 04:02:12;;;;;;;17.27;3.47;;;;;;;13.95;80.61;101623.94;5030077;28;20025;-68
2021/10/15 04:04:38;;;;;;;14.43;3.83;;;;;;;13.95;80.73;101623.09;5024439;28;20029;-69
2021/10/15 04:07:03;;;;;;;13.55;3.72;;;;;;;13.94;81.14;101621.34;5026596;28;20033;-69
2021/10/15 04:09:28;;;;;;;16.30;3.78;;;;;;;13.92;80.72;101629.31;5027355;28;20021;-69
2021/10/15 04:11:55;;;;;;;13.27;3.40;;;;;;;13.94;80.71;101616.06;5031177;28;20047;-68
2021/10/15 04:14:21;;;;;;;16.50;4.05;;;;;;;13.95;80.78;101623.09;5030378;28;20034;-69
2021/10/15 04:16:47;;;;;;;16.25;3.63;;;;;;;13.95;80.97;101623.94;5029972;28;20072;-69
2021/10/15 04:19:12;;;;;;;14.13;4.32;;;;;;;13.92;81.36;101613.50;5025595;28;20068;-69
2021/10/15 04:21:37;;;;;;;14.60;3.75;;;;;;;13.91;81.04;101617.03;5028144;28;20319;-69
2021/10/15 04:24:03;;;;;;;15.18;3.72;;;;;;;13.90;81.44;101612.69;5028998;28;20053;-70
2021/10/15 04:26:28;;;;;;;14.85;3.40;;;;;;;13.92;81.29;101613.50;5027398;28;20052;-69
2021/10/15 04:28:53;;;;;;;16.23;3.53;;;;;;;13.91;81.17;101617.03;5017167;28;20033;-69
2021/10/15 04:31:19;;;;;;;11.98;3.25;;;;;;;13.92;81.19;101608.22;5030614;28;20033;-69
2021/10/15 04:33:44;;;;;;;12.90;3.20;;;;;;;13.92;81.28;101616.13;5027611;28;20151;-69
2021/10/15 04:36:10;;;;;;;13.82;3.70;;;;;;;13.92;80.95;101613.50;5026555;28;20026;-69
2021/10/15 04:38:35;;;;;;;14.75;3.35;;;;;;;13.90;80.80;101604.78;5025185;28;20053;-69
2021/10/15 04:41:01;;;;;;;17.42;3.63;;;;;;;13.88;80.10;101610.09;5027717;28;20037;-70
2021/10/15 04:43:26;;;;;;;17.05;4.10;;;;;;;13.84;80.50;101610.25;5030273;28;20035;-69
2021/10/15 04:45:52;;;;;;;15.10;3.17;;;;;;;13.85;80.77;101618.13;5026466;28;20026;-69
2021/10/15 04:48:17;;;;;;;13.27;3.30;;;;;;;13.84;81.20;101611.13;5023818;28;20120;-69
2021/10/15 04:50:42;;;;;;;10.75;3.33;;;;;;;13.84;81.38;101607.63;5021965;28;20025;-69
2021/10/15 04:53:08;;;;;;;12.98;3.30;;;;;;;13.84;81.18;101611.13;5014213;28;20037;-69
2021/10/15 04:55:34;;;;;;;10.45;3.63;;;;;;;13.83;81.67;101603.25;5019288;28;20040;-68
2021/10/15 04:58:00;;;;;;;19.23;4.35;;;;;;;13.86;81.78;101605.81;5030800;28;20072;-69
2021/10/15 05:00:27;;;;;;;16.70;3.25;;;;;;;13.83;81.95;101605.88;5017242;28;20029;-68
2021/10/15 05:02:52;;;;;;;14.38;3.60;;;;;;;13.87;81.92;101612.81;5029987;28;20039;-69
2021/10/15 05:05:23;;;;;;;15.43;3.78;;;;;;;13.84;81.44;101610.25;5028549;28;20445;-69
2021/10/15 05:07:49;;;;;;;14.52;3.88;;;;;;;13.86;80.89;101600.53;5027786;28;20029;-69
2021/10/15 05:10:15;;;;;;;22.15;3.58;;;;;;;13.85;80.88;101610.22;5027929;28;20033;-69
2021/10/15 05:12:40;;;;;;;15.43;3.53;;;;;;;13.85;81.12;101604.94;5030299;28;20110;-69
2021/10/15 05:15:10;;;;;;;9.52;3.35;;;;;;;13.84;80.55;101600.59;5028029;28;20478;-70
2021/10/15 05:17:36;;;;;;;9.75;3.33;;;;;;;13.86;80.69;101601.38;5030046;28;20108;-70
2021/10/15 05:20:03;;;;;;;13.10;3.10;;;;;;;13.87;80.87;101610.16;5021061;28;20026;-68
2021/10/15 05:22:29;;;;;;;10.88;3.20;;;;;;;13.82;81.30;101604.19;5030456;28;20052;-68
2021/10/15 05:24:54;;;;;;;14.98;3.28;;;;;;;13.82;81.33;101606.81;5024209;28;20053;-71
2021/10/15 05:27:20;;;;;;;16.45;3.50;;;;;;;13.76;82.36;101617.59;5031387;28;20056;-68
2021/10/15 05:29:48;;;;;;;17.33;3.67;;;;;;;13.67;85.87;101634.56;5023416;28;20104;-69
2021/10/15 05:32:16;;;;;;;16.85;3.50;;;;;;;13.39;89.13;101619.66;5029189;28;20041;-69
2021/10/15 05:34:42;;;;;;;14.23;3.30;;;;;;;13.11;91.38;101630.16;5027436;28;20471;-68
2021/10/15 05:37:08;;;;;;;14.18;3.40;;;;;;;12.88;93.24;101631.72;5018969;28;20037;-69
2021/10/15 05:39:33;;;;;;;9.48;2.80;;;;;;;12.66;93.88;101634.97;5024405;28;20433;-70
2021/10/15 05:41:58;;;;;;;13.38;3.38;;;;;;;12.51;94.84;101635.44;5015360;28;20029;-70
2021/10/15 05:44:24;;;;;;;12.68;3.33;;;;;;;12.40;95.98;101628.72;5024922;28;20029;-70
2021/10/15 05:46:49;;;;;;;9.68;3.00;;;;;;;12.34;96.90;101636.78;5021448;28;20136;-68
2021/10/15 05:49:16;;;;;;;11.52;3.53;;;;;;;12.37;97.36;101633.19;5019790;28;20552;-68
2021/10/15 05:51:43;;;;;;;12.80;3.38;;;;;;;12.32;98.05;101632.47;5024927;28;20043;-69
2021/10/15 05:54:12;;;;;;;10.90;3.50;;;;;;;12.30;98.34;101637.75;5016652;28;20029;-69
2021/10/15 05:59:06;;;;;;;14.57;3.80;;;;;;;12.32;98.74;101641.19;5027090;28;20053;-69
2021/10/15 06:01:33;;;;;;;18.05;4.22;;;;;;;12.31;99.12;101650.00;5022186;28;20103;-69
2021/10/15 06:04:57;;;;;;;16.95;4.50;;;;;;;12.31;99.31;101683.34;5028635;28;20132;-69
2021/10/15 06:15:16;;;;;;;9.20;1.30;;;;;;;11.63;98.13;101699.00;5045604;28;20063;-70
2021/10/15 06:17:43;;;;;;;5.75;1.73;;;;;;;11.51;98.67;101701.91;5030906;28;20471;-67
2021/10/15 06:20:10;;;;;;;9.68;1.80;;;;;;;11.41;99.00;101701.25;5024800;28;20029;-69
2021/10/15 06:22:35;;;;;;;7.07;1.70;;;;;;;11.36;99.71;101706.63;5027887;28;20025;-69
2021/10/15 06:25:01;;;;;;;6.03;1.00;;;;;;;11.32;99.87;101710.19;5021360;28;20083;-69
2021/10/15 06:27:26;;;;;;;7.57;1.65;;;;;;;11.31;99.97;101721.59;5021436;28;20060;-69
2021/10/15 06:29:51;;;;;;;3.67;1.10;;;;;;;11.28;100.00;101726.94;5024018;28;20055;-69
2021/10/15 06:32:18;;;;;;;5.50;1.15;;;;;;;11.23;100.00;101721.75;5024687;28;20026;-69
2021/10/15 06:34:44;;;;;;;8.55;1.42;;;;;;;11.19;99.86;101727.09;5024184;28;20069;-71
2021/10/15 06:37:09;;;;;;;9.65;1.67;;;;;;;11.12;99.54;101743.00;5024347;28;20073;-70
2021/10/15 06:39:35;;;;;;;6.75;1.65;;;;;;;11.06;99.65;101748.38;5018425;28;20052;-70
2021/10/15 06:42:00;;;;;;;8.05;1.80;;;;;;;11.00;99.22;101760.78;5012426;28;20076;-71
2021/10/15 06:44:25;;;;;;;9.80;2.10;;;;;;;10.95;99.15;101764.34;5024236;28;20030;-70
2021/10/15 06:46:52;;;;;;;9.15;2.03;;;;;;;10.88;98.98;101772.34;5028610;28;20025;-68
2021/10/15 06:49:18;;;;;;;12.27;1.73;;;;;;;10.86;99.11;101768.91;5024238;28;20025;-71
2021/10/15 06:51:43;;;;;;;11.10;2.38;;;;;;;10.81;99.09;101775.09;5029087;28;20029;-70
2021/10/15 06:54:09;;;;;;;15.00;2.20;;;;;;;10.81;99.17;101780.34;5027222;28;20049;-73
2021/10/15 06:56:34;;;;;;;15.32;2.10;;;;;;;10.79;99.17;101776.03;5023433;28;20033;-72
2021/10/15 06:58:59;;;;;;;12.00;2.30;;;;;;;10.78;99.16;101784.81;5027690;28;20037;-71
2021/10/15 07:01:25;;;;;;;12.40;2.03;;;;;;;10.76;99.20;101791.84;5028731;28;20041;-72
2021/10/15 07:03:50;;;;;;;10.60;2.10;;;;;;;10.78;99.49;101797.94;5025094;28;20032;-72
2021/10/15 07:06:15;;;;;;;14.13;2.60;;;;;;;10.79;99.57;101805.78;5024775;28;20457;-71
2021/10/15 07:08:41;;;;;;;13.48;2.15;;;;;;;10.79;99.38;101808.41;5017659;28;20033;-71
2021/10/15 07:11:06;;;;;;;12.52;2.58;;;;;;;10.77;98.94;101798.81;5023717;28;20496;-71
2021/10/15 07:13:31;;;;;;;17.60;3.33;;;;;;;10.80;98.77;101810.13;5024259;28;20018;-71
2021/10/15 07:15:57;;;;;;;16.05;2.42;;;;;;;10.82;98.47;101816.19;5025792;28;20505;-71
2021/10/15 07:18:23;;;;;;;12.93;2.00;;;;;;;10.79;97.51;101805.78;5021014;28;20489;-71
2021/10/15 07:20:48;;;;;;;12.40;2.15;;;;;;;10.76;96.47;101813.69;5024991;28;20030;-71
2021/10/15 07:23:14;;;;;;;8.10;2.08;;;;;;;10.78;96.24;101825.03;5021948;28;20517;-70
2021/10/15 07:25:40;;;;;;;12.40;2.63;;;;;;;10.76;95.28;101832.06;5017065;28;20025;-71
2021/10/15 07:28:07;;;;;;;9.88;2.20;;;;;;;10.80;94.98;101836.38;5015183;28;20796;-71
2021/10/15 07:30:32;;;;;;;11.95;2.40;;;;;;;10.84;94.50;101825.81;5018465;28;20208;-70
2021/10/15 07:32:57;;;;;;;10.80;2.15;;;;;;;10.81;94.41;101835.47;5024509;28;20135;-70
2021/10/15 07:35:23;;;;;;;11.32;2.20;;;;;;;10.81;94.39;101829.34;5025470;28;20073;-70
2021/10/15 07:37:48;;;;;;;11.43;2.85;;;;;;;10.82;94.41;101841.59;5026922;28;20112;-69
2021/10/15 07:40:13;;;;;;;9.18;2.03;;;;;;;10.82;94.61;101841.59;5028241;28;20034;-70
2021/10/15 07:42:39;;;;;;;12.48;2.80;;;;;;;10.85;95.51;101852.03;5015453;28;20064;-71
2021/10/15 07:45:05;;;;;;;9.40;2.30;;;;;;;10.89;95.03;101858.09;5028115;28;20029;-72
2021/10/15 07:47:30;;;;;;;13.40;2.40;;;;;;;10.89;94.68;101858.97;5028097;28;20072;-71
2021/10/15 07:49:55;;;;;;;13.18;2.40;;;;;;;10.82;94.47;101855.56;5020035;28;20394;-70
2021/10/15 07:52:22;;;;;;;11.23;2.90;;;;;;;10.82;94.70;101860.81;5020115;28;20030;-71
2021/10/15 07:54:47;;;;;;;10.30;2.42;;;;;;;10.88;95.11;101874.72;5021048;28;20045;-69
2021/10/15 07:57:13;;;;;;;10.25;2.47;;;;;;;10.96;95.76;101872.84;5028131;28;20057;-71
2021/10/15 07:59:39;;;;;;;11.52;2.60;;;;;;;11.12;95.90;101876.03;5026014;28;20475;-72
2021/10/15 08:02:04;;;;;;;9.68;2.22;;;;;;;11.30;94.50;101883.56;5022018;28;20029;-71
2021/10/15 08:04:30;;;;;;;15.32;2.50;;;;;;;11.39;94.08;101885.16;5018912;28;20021;-71
2021/10/15 08:06:55;;;;;;;14.77;2.65;;;;;;;11.58;93.04;101879.53;5025011;28;20071;-72
2021/10/15 08:09:21;;;;;;;10.05;2.30;;;;;;;11.70;92.45;101887.16;5021345;28;20100;-69
2021/10/15 08:11:47;;;;;;;9.55;1.90;;;;;;;11.75;91.07;101894.97;5025666;28;20116;-70
2021/10/15 08:14:12;;;;;;;13.73;2.80;;;;;;;11.77;90.32;101891.41;5029870;28;20061;-72
2021/10/15 08:16:37;;;;;;;9.57;2.28;;;;;;;11.80;90.31;101895.72;5021253;28;20021;-70
2021/10/15 08:19:03;;;;;;;8.40;2.85;;;;;;;11.93;90.94;101896.31;5023929;28;20025;-71
2021/10/15 08:21:28;;;;;;;14.77;2.63;;;;;;;12.06;90.55;101902.22;5030300;28;20021;-69
2021/10/15 08:23:53;;;;;;;11.63;3.30;;;;;;;12.06;89.70;101912.75;5021176;28;20441;-70
2021/10/15 08:26:19;;;;;;;14.18;2.80;;;;;;;12.01;89.21;101904.09;5031239;28;20028;-70
2021/10/15 08:28:46;;;;;;;13.90;2.20;;;;;;;12.02;88.35;101918.94;5022777;28;20014;-69
2021/10/15 08:31:13;;;;;;;18.55;2.90;;;;;;;12.09;88.24;101917.91;5023200;28;20696;-71
2021/10/15 08:33:39;;;;;;;13.18;2.25;;;;;;;12.14;86.45;101925.72;5019848;28;20029;-70
2021/10/15 08:36:04;;;;;;;12.68;2.63;;;;;;;12.16;85.79;101930.03;5031162;28;20035;-70
2021/10/15 08:38:30;;;;;;;18.15;3.35;;;;;;;12.12;86.23;101936.28;5025725;28;20402;-70
2021/10/15 08:40:55;;;;;;;21.40;3.40;;;;;;;12.11;84.98;101938.03;5011322;28;20038;-70
2021/10/15 08:43:32;;;;;;;15.52;2.42;;;;;;;12.23;85.87;101942.16;5011668;28;20029;-72
2021/10/15 08:45:57;;;;;;;11.63;2.65;;;;;;;12.32;84.45;101943.72;5028763;28;20021;-71
2021/10/15 08:48:23;;;;;;;12.48;2.80;;;;;;;12.31;83.61;101941.97;5029658;28;20508;-72
2021/10/15 08:50:49;;;;;;;16.85;3.00;;;;;;;12.33;84.27;101948.09;5023236;28;20036;-68
2021/10/15 08:53:14;;;;;;;15.73;3.00;;;;;;;12.39;81.01;101953.22;5019434;28;20186;-70
2021/10/15 08:55:39;;;;;;;18.55;2.35;;;;;;;12.47;80.50;101949.53;5027524;28;20034;-70
2021/10/15 08:58:05;;;;;;;18.23;3.35;;;;;;;12.57;79.22;101962.44;5030434;28;20035;-70
2021/10/15 09:00:33;;;;;;;14.18;2.80;;;;;;;12.61;78.17;101963.22;5030546;28;20029;-71
2021/10/15 09:03:19;;;;;;;12.13;2.70;;;;;;;12.50;76.69;101966.13;5029735;28;20155;-70
2021/10/15 09:06:01;;;;;;;16.55;2.83;;;;;;;12.41;77.25;101972.44;5030105;28;20047;-71
2021/10/15 09:08:43;;;;;;;11.77;2.80;;;;;;;12.31;77.16;101976.19;5029554;28;20421;-71
2021/10/15 09:11:28;;;;;;;14.10;2.50;;;;;;;12.25;75.10;101977.19;5029881;28;20437;-70
2021/10/15 09:14:03;;;;;;;12.88;2.53;;;;;;;12.24;73.05;101974.59;5029858;28;20056;-70
2021/10/15 09:16:28;;;;;;;18.75;2.72;;;;;;;12.29;71.92;101977.13;5027783;28;20032;-69
2021/10/15 09:18:53;;;;;;;11.73;2.38;;;;;;;12.27;73.60;101979.78;5029266;28;20026;-69
2021/10/15 09:21:19;;;;;;;12.13;2.13;;;;;;;12.32;73.79;101980.56;5029202;28;20080;-71
2021/10/15 09:23:56;;;;;;;13.60;2.42;;;;;;;12.45;71.06;101983.75;5030047;28;20052;-71
2021/10/15 09:26:23;;;;;;;9.50;2.05;;;;;;;12.61;70.84;101979.03;5026420;28;20021;-72
2021/10/15 09:28:49;;;;;;;13.07;2.65;;;;;;;12.83;70.27;101983.78;5023915;28;20030;-72
2021/10/15 09:31:14;;;;;;;8.05;1.85;;;;;;;13.10;69.22;101989.25;5026544;28;20030;-69
2021/10/15 09:33:57;;;;;;;11.85;3.92;;;;;;;13.21;68.93;101988.09;5026943;28;20370;-71
2021/10/15 09:36:23;;;;;;;9.65;2.00;;;;;;;13.37;69.04;101996.50;5017846;28;20063;-69
2021/10/15 09:38:50;;;;;;;13.82;2.45;;;;;;;13.48;69.27;101998.00;5027372;28;20023;-70
2021/10/15 09:41:38;;;;;;;10.55;2.05;;;;;;;13.62;69.18;102002.88;5028181;28;20033;-69
2021/10/15 09:44:31;;;;;;;14.40;2.70;;;;;;;13.93;68.74;102000.28;5027212;28;20389;-70
2021/10/15 09:47:23;;;;;;;16.98;3.55;;;;;;;14.16;66.92;101998.75;5026361;28;20113;-69
2021/10/15 09:49:50;;;;;;;14.63;2.75;;;;;;;14.47;67.34;102005.75;5029103;28;20029;-69
2021/10/15 09:52:34;;;;;;;13.88;2.50;;;;;;;15.17;65.47;102001.78;5022896;28;20571;-69
2021/10/15 09:55:01;;;;;;;;;;;;;;;16.29;59.29;102004.84;5029477;28;20386;-70
2021/10/15 09:57:31;;;;;;;16.48;2.75;;;;;;;16.14;59.00;102010.72;5021348;28;19925;-69
2021/10/15 09:59:57;;;;;;;19.35;3.08;;;;;;;15.64;59.95;102022.19;5023098;28;20041;-69
2021/10/15 10:02:23;;;;;;;16.48;2.60;;;;;;;14.98;61.85;102026.16;5020420;28;20470;-70
2021/10/15 10:04:49;;;;;;;15.55;3.03;;;;;;;14.48;63.28;102023.31;5024695;28;20041;-69
2021/10/15 10:07:15;;;;;;;14.68;2.65;;;;;;;14.37;64.55;102031.53;5028171;28;20415;-69
2021/10/15 10:09:41;;;;;;;8.27;2.60;;;;;;;15.55;61.65;102039.22;5019705;28;20176;-70
2021/10/15 10:12:06;;;;;;;14.25;2.72;;;;;;;17.39;56.20;102026.06;5026195;28;20021;-69
2021/10/15 10:14:32;;;;;;;11.90;2.28;;;;;;;18.31;51.76;102022.94;5019738;28;20077;-69
2021/10/15 10:16:57;;;;;;;18.00;3.10;;;;;;;17.65;53.21;102030.28;5023955;28;20209;-69
2021/10/15 10:19:26;;;;;;;14.13;2.60;;;;;;;16.63;55.34;102029.13;5029393;28;20029;-69
2021/10/15 10:21:52;;;;;;;13.18;2.42;;;;;;;15.87;56.76;102031.97;5027481;28;20112;-71
2021/10/15 10:24:26;;;;;;;12.48;2.38;;;;;;;15.26;58.39;102037.59;5019535;28;20129;-70
2021/10/15 10:26:55;;;;;;;12.43;3.28;;;;;;;16.04;59.06;102036.66;5010510;28;20160;-70
2021/10/15 10:29:20;;;;;;;9.68;2.60;;;;;;;18.21;53.45;102030.47;5019400;28;20151;-70
2021/10/15 10:31:46;;;;;;;13.45;2.92;;;;;;;19.49;49.11;102037.53;5019280;28;20508;-70
2021/10/15 10:34:14;;;;;;;11.40;3.08;;;;;;;19.94;46.48;102040.56;5028610;28;20138;-69
2021/10/15 10:36:40;;;;;;;14.00;3.17;;;;;;;18.97;49.57;102043.69;5027838;28;20387;-70
2021/10/15 10:39:17;;;;;;;11.23;2.83;;;;;;;16.89;53.67;102056.38;5014629;28;20022;-69
2021/10/15 10:42:06;;;;;;;12.73;2.72;;;;;;;16.65;56.45;102056.44;5028454;28;20064;-73
2021/10/15 10:44:44;;;;;;;13.50;2.92;;;;;;;18.09;51.23;102050.47;5028236;28;20451;-71
2021/10/15 10:47:14;;;;;;;11.93;2.75;;;;;;;19.14;49.50;102048.19;5028591;28;20025;-71
2021/10/15 10:49:41;;;;;;;11.63;2.38;;;;;;;20.31;45.94;102051.88;5010325;28;20070;-70
2021/10/15 10:52:16;;;;;;;10.18;2.70;;;;;;;20.78;41.57;102052.00;5021923;28;20030;-70
2021/10/15 10:54:43;;;;;;;10.52;2.90;;;;;;;21.39;41.26;102063.56;5025005;28;20028;-70
2021/10/15 10:57:22;;;;;;;16.35;3.28;;;;;;;21.69;41.91;102057.38;5028513;28;20029;-71
2021/10/15 10:59:51;;;;;;;13.68;3.35;;;;;;;21.96;41.04;102070.00;5023549;28;20026;-69
2021/10/15 11:02:19;;;;;;;12.65;3.25;;;;;;;22.63;38.45;102072.03;5029213;28;20470;-73
2021/10/15 11:04:44;;;;;;;12.40;2.85;;;;;;;22.67;37.76;102072.72;5008254;28;20028;-71
2021/10/15 11:07:22;;;;;;;12.60;2.90;;;;;;;21.87;36.94;102079.44;5028361;28;20025;-71
2021/10/15 11:09:52;;;;;;;13.90;3.10;;;;;;;20.28;42.15;102083.16;5028104;28;20362;-71
2021/10/15 11:12:26;;;;;;;13.27;3.10;;;;;;;19.23;45.63;102085.91;5029235;28;20109;-70
2021/10/15 11:14:55;;;;;;;15.02;2.95;;;;;;;18.88;45.90;102089.31;5028415;28;20025;-70
2021/10/15 11:17:29;;;;;;;12.50;3.03;;;;;;;18.44;45.73;102100.25;5020435;28;20030;-70
2021/10/15 11:20:06;;;;;;;14.98;3.05;;;;;;;19.81;42.86;102093.56;5027319;28;20044;-70
2021/10/15 11:22:32;;;;;;;12.93;2.67;;;;;;;21.18;40.31;102091.53;5015273;28;20040;-71
2021/10/15 11:24:57;;;;;;;9.35;2.40;;;;;;;22.50;35.95;102090.72;5024876;28;20022;-70
2021/10/15 11:27:22;;;;;;;13.85;3.10;;;;;;;23.26;33.93;102096.50;5029117;28;20022;-70
2021/10/15 11:29:52;;;;;;;12.55;3.63;;;;;;;22.35;37.03;102107.66;5028821;28;20486;-70